TO10 weather

Aviosuperficie Ivrea Montalto Dora
Montalto Dora (TO), Piedmont, Italy

Public forecast

Using degrees Celsius for public forecast. Weather courtesy of forecast.io.

METAR (pilot weather report)

Closest report is Turin Airport, 19.1 nm (35.3 km) SSW. Retrieved 2019/05/25 06:20 UTC (35 minutes ago):

LIMF 250620Z 23005KT 9999 FEW120 17/13 Q1014

TAF (pilot weather forecast)

Closest forecast is Turin Airport, 19.1 nm (35.3 km) SSW. Retrieved 2019/05/25 06:25 UTC (30 minutes ago):

TAF LIMF 250500Z 2506/2606 VRB05KT 9999 SCT050 TEMPO 2506/2524 3000 TSRA BKN012CB BECMG 2600/2603 4000 RA BKN012 BKN040